Herrick, Illinois
Current Conditions -  °F | °C
As of 3:35 PM on Wednesday 17 Dec 2014 (Local Time) from K1H2 Reporting Station
Overcast Overcast  
Wind Chill: 23°   Ceiling: 1700
Heat Index: 30°   Visibility: 10mi
Dew Point: 22°   Wind: 7mph
Humidity: 72%   Direction: 260°W
Pressure: 30.3"   Gusts: NA
Location:  39.22°N, 88.98°W
Report Text: K1H2 172135Z AUTO 26006KT 10SM OVC017 M01/M05 A3030 RMK AO2 T10111055
Loading
Personal Weather Stations






























Interactive Weather Map New forecast layout! Learn more

10-Day Weather Forecast

Advertisements
Track Severe Weather on mobile